ETD5LZ OMAA-OPKC
Flight info
| Callsign | ETD5LZ |
|---|---|
| Flight time | 1h 37m |
| Altitude | 39000 |
| Route | KANIP N318 LAKLU G216 LAKIV |
| Aircraft | B77W/H-SDE1E2E3FGHIJ2J3J4J5M1RWXY/LB1D1 |
Departure
| Time | 2026-04-29 11:11 |
|---|---|
| Airport | Zayed International Airport (OMAA) |
Arrival
| Time | 2026-04-29 12:48 |
|---|---|
| Airport | Jinnah International Airport (OPKC) |
| Time | Latitude | Longitude | Altitude | Speed | Heading |
|---|---|---|---|---|---|
| 2026-04-29 10:36 | 24.45196 | 54.64613 | 82 ft | 0 kts | 192° |
| 2026-04-29 11:01 | 24.45200 | 54.64614 | 80 ft | 3 kts | 192° |
| 2026-04-29 11:01 | 24.45226 | 54.64620 | 81 ft | 3 kts | 192° |
| 2026-04-29 11:01 | 24.45249 | 54.64624 | 85 ft | 4 kts | 176° |
| 2026-04-29 11:01 | 24.45273 | 54.64616 | 85 ft | 4 kts | 138° |
| 2026-04-29 11:02 | 24.45287 | 54.64593 | 85 ft | 4 kts | 105° |
| 2026-04-29 11:02 | 24.45293 | 54.64566 | 85 ft | 4 kts | 100° |
| 2026-04-29 11:02 | 24.45297 | 54.64541 | 85 ft | 1 kts | 100° |
| 2026-04-29 11:02 | 24.45297 | 54.64540 | 85 ft | 0 kts | 100° |
| 2026-04-29 11:06 | 24.45297 | 54.64541 | 85 ft | 1 kts | 100° |
| 2026-04-29 11:06 | 24.45278 | 54.64653 | 84 ft | 25 kts | 100° |
| 2026-04-29 11:06 | 24.45239 | 54.64837 | 81 ft | 25 kts | 105° |
| 2026-04-29 11:07 | 24.45175 | 54.65013 | 85 ft | 25 kts | 128° |
| 2026-04-29 11:07 | 24.45067 | 54.65161 | 85 ft | 25 kts | 127° |
| 2026-04-29 11:07 | 24.44964 | 54.65312 | 86 ft | 25 kts | 128° |
| 2026-04-29 11:07 | 24.44856 | 54.65461 | 86 ft | 25 kts | 127° |
| 2026-04-29 11:08 | 24.44839 | 54.65620 | 87 ft | 24 kts | 40° |
| 2026-04-29 11:08 | 24.44918 | 54.65753 | 84 ft | 22 kts | 117° |
| 2026-04-29 11:08 | 24.44766 | 54.65984 | 85 ft | 51 kts | 130° |
| 2026-04-29 11:08 | 24.44545 | 54.66284 | 88 ft | 49 kts | 128° |
| 2026-04-29 11:09 | 24.44338 | 54.66578 | 89 ft | 48 kts | 127° |
| 2026-04-29 11:09 | 24.44175 | 54.66808 | 89 ft | 30 kts | 128° |
| 2026-04-29 11:09 | 24.44202 | 54.66970 | 86 ft | 25 kts | 35° |
| 2026-04-29 11:09 | 24.44287 | 54.66955 | 87 ft | 0 kts | 307° |
| 2026-04-29 11:10 | 24.44313 | 54.66919 | 89 ft | 22 kts | 308° |
| 2026-04-29 11:10 | 24.44572 | 54.66555 | 87 ft | 98 kts | 307° |
| 2026-04-29 11:10 | 24.44911 | 54.66076 | 85 ft | 139 kts | 308° |
| 2026-04-29 11:10 | 24.45813 | 54.64773 | 469 ft | 174 kts | 308° |
| 2026-04-29 11:11 | 24.46263 | 54.64008 | 854 ft | 177 kts | 305° |
| 2026-04-29 11:11 | 24.46992 | 54.62945 | 1577 ft | 175 kts | 316° |
| 2026-04-29 11:11 | 24.47996 | 54.62181 | 2287 ft | 183 kts | 338° |
| 2026-04-29 11:11 | 24.49303 | 54.61718 | 2636 ft | 213 kts | 343° |
| 2026-04-29 11:12 | 24.50833 | 54.61194 | 3040 ft | 239 kts | 342° |
| 2026-04-29 11:12 | 24.52456 | 54.60608 | 3781 ft | 249 kts | 341° |
| 2026-04-29 11:12 | 24.54120 | 54.59981 | 4525 ft | 256 kts | 339° |
| 2026-04-29 11:12 | 24.55798 | 54.59329 | 4953 ft | 258 kts | 338° |
| 2026-04-29 11:13 | 24.57479 | 54.58668 | 5009 ft | 260 kts | 338° |
| 2026-04-29 11:13 | 24.59194 | 54.57989 | 5275 ft | 268 kts | 338° |
| 2026-04-29 11:13 | 24.61023 | 54.57327 | 5851 ft | 284 kts | 348° |
| 2026-04-29 11:13 | 24.63015 | 54.57494 | 6606 ft | 292 kts | 18° |
| 2026-04-29 11:14 | 24.64882 | 54.58419 | 7529 ft | 296 kts | 25° |
| 2026-04-29 11:14 | 24.66744 | 54.59436 | 8483 ft | 300 kts | 25° |
| 2026-04-29 11:14 | 24.68608 | 54.60460 | 9385 ft | 307 kts | 25° |
| 2026-04-29 11:14 | 24.70543 | 54.61521 | 10290 ft | 311 kts | 24° |
| 2026-04-29 11:15 | 24.72511 | 54.62595 | 10902 ft | 329 kts | 24° |
| 2026-04-29 11:15 | 24.74662 | 54.63761 | 11153 ft | 360 kts | 24° |
| 2026-04-29 11:15 | 24.76836 | 54.65286 | 11286 ft | 386 kts | 43° |
| 2026-04-29 11:15 | 24.78380 | 54.67774 | 11873 ft | 402 kts | 68° |
| 2026-04-29 11:16 | 24.78916 | 54.70808 | 12732 ft | 409 kts | 92° |
| 2026-04-29 11:16 | 24.78322 | 54.73868 | 13637 ft | 410 kts | 114° |
| 2026-04-29 11:16 | 24.76829 | 54.76552 | 14318 ft | 415 kts | 135° |
| 2026-04-29 11:16 | 24.74561 | 54.78504 | 15109 ft | 415 kts | 154° |
| 2026-04-29 11:17 | 24.71868 | 54.79607 | 15964 ft | 413 kts | 172° |
| 2026-04-29 11:17 | 24.69016 | 54.79855 | 16810 ft | 412 kts | 187° |
| 2026-04-29 11:17 | 24.66246 | 54.79176 | 17572 ft | 406 kts | 202° |
| 2026-04-29 11:17 | 24.63512 | 54.78295 | 18028 ft | 418 kts | 192° |
| 2026-04-29 11:18 | 24.60589 | 54.78409 | 18668 ft | 435 kts | 171° |
| 2026-04-29 11:18 | 24.57738 | 54.79603 | 19589 ft | 444 kts | 154° |
| 2026-04-29 11:18 | 24.55307 | 54.81717 | 20410 ft | 449 kts | 140° |
| 2026-04-29 11:18 | 24.53060 | 54.84161 | 21006 ft | 458 kts | 139° |
| 2026-04-29 11:19 | 24.50786 | 54.86649 | 21694 ft | 464 kts | 140° |
| 2026-04-29 11:19 | 24.48481 | 54.89151 | 22446 ft | 467 kts | 140° |
| 2026-04-29 11:19 | 24.46182 | 54.91616 | 23243 ft | 469 kts | 141° |
| 2026-04-29 11:19 | 24.43825 | 54.94116 | 23851 ft | 473 kts | 141° |
| 2026-04-29 11:20 | 24.41434 | 54.96635 | 24330 ft | 480 kts | 141° |
| 2026-04-29 11:20 | 24.38999 | 54.99194 | 24785 ft | 486 kts | 141° |
| 2026-04-29 11:20 | 24.36535 | 55.01785 | 25258 ft | 492 kts | 141° |
| 2026-04-29 11:20 | 24.34055 | 55.04392 | 25725 ft | 497 kts | 141° |
| 2026-04-29 11:21 | 24.31648 | 55.07156 | 26180 ft | 507 kts | 132° |
| 2026-04-29 11:21 | 24.29753 | 55.10428 | 26617 ft | 518 kts | 122° |
| 2026-04-29 11:21 | 24.28085 | 55.13940 | 27079 ft | 522 kts | 120° |
| 2026-04-29 11:21 | 24.26413 | 55.17506 | 27499 ft | 527 kts | 121° |
| 2026-04-29 11:22 | 24.24683 | 55.21076 | 27904 ft | 531 kts | 122° |
| 2026-04-29 11:22 | 24.22912 | 55.24593 | 28286 ft | 535 kts | 122° |
| 2026-04-29 11:22 | 24.21074 | 55.28158 | 28649 ft | 539 kts | 123° |
| 2026-04-29 11:22 | 24.19212 | 55.31753 | 28977 ft | 542 kts | 122° |
| 2026-04-29 11:23 | 24.17362 | 55.35386 | 29377 ft | 545 kts | 120° |
| 2026-04-29 11:23 | 24.15750 | 55.39109 | 29704 ft | 550 kts | 116° |
| 2026-04-29 11:23 | 24.14290 | 55.43006 | 30022 ft | 553 kts | 114° |
| 2026-04-29 11:23 | 24.12888 | 55.46936 | 30443 ft | 552 kts | 114° |
| 2026-04-29 11:24 | 24.11476 | 55.50823 | 30957 ft | 548 kts | 114° |
| 2026-04-29 11:24 | 24.10024 | 55.54674 | 31477 ft | 544 kts | 115° |
| 2026-04-29 11:24 | 24.08549 | 55.58479 | 31942 ft | 543 kts | 115° |
| 2026-04-29 11:24 | 24.07083 | 55.62231 | 32413 ft | 541 kts | 115° |
| 2026-04-29 11:25 | 24.05549 | 55.65981 | 32899 ft | 537 kts | 119° |
| 2026-04-29 11:25 | 24.03854 | 55.69606 | 33412 ft | 534 kts | 120° |
| 2026-04-29 11:25 | 24.02122 | 55.73198 | 33889 ft | 532 kts | 121° |
| 2026-04-29 11:25 | 24.00383 | 55.76778 | 34317 ft | 530 kts | 121° |
| 2026-04-29 11:26 | 23.96961 | 55.83875 | 35378 ft | 523 kts | 120° |
| 2026-04-29 11:26 | 23.95298 | 55.87349 | 35812 ft | 521 kts | 120° |
| 2026-04-29 11:26 | 23.93618 | 55.90864 | 36196 ft | 520 kts | 120° |
| 2026-04-29 11:27 | 23.91937 | 55.94382 | 36552 ft | 520 kts | 120° |
| 2026-04-29 11:27 | 23.90259 | 55.97891 | 36925 ft | 519 kts | 121° |
| 2026-04-29 11:27 | 23.88587 | 56.01383 | 37349 ft | 517 kts | 121° |
| 2026-04-29 11:27 | 23.86947 | 56.04805 | 37771 ft | 514 kts | 121° |
| 2026-04-29 11:28 | 23.85286 | 56.08267 | 38244 ft | 511 kts | 121° |
| 2026-04-29 11:28 | 23.83639 | 56.11697 | 38621 ft | 509 kts | 121° |
| 2026-04-29 11:28 | 23.81986 | 56.15138 | 38766 ft | 512 kts | 121° |
| 2026-04-29 11:28 | 23.80319 | 56.18603 | 38807 ft | 515 kts | 121° |
| 2026-04-29 11:29 | 23.77005 | 56.25494 | 38831 ft | 512 kts | 121° |
| 2026-04-29 11:29 | 23.73703 | 56.32357 | 38834 ft | 507 kts | 121° |
| 2026-04-29 11:30 | 23.70420 | 56.39164 | 38840 ft | 505 kts | 121° |
| 2026-04-29 11:30 | 23.67157 | 56.45918 | 38855 ft | 505 kts | 120° |
| 2026-04-29 11:31 | 23.63878 | 56.52697 | 38850 ft | 505 kts | 120° |
| 2026-04-29 11:31 | 23.60591 | 56.59482 | 38845 ft | 506 kts | 120° |
| 2026-04-29 11:32 | 23.57319 | 56.66229 | 38849 ft | 506 kts | 120° |
| 2026-04-29 11:32 | 23.54018 | 56.73026 | 38845 ft | 507 kts | 120° |
| 2026-04-29 11:33 | 23.50713 | 56.79823 | 38857 ft | 508 kts | 120° |
| 2026-04-29 11:33 | 23.47418 | 56.86590 | 38849 ft | 508 kts | 120° |
| 2026-04-29 11:34 | 23.44102 | 56.93392 | 38857 ft | 508 kts | 120° |
| 2026-04-29 11:34 | 23.40784 | 57.00187 | 38856 ft | 507 kts | 120° |
| 2026-04-29 11:35 | 23.39323 | 57.03672 | 38849 ft | 509 kts | 109° |
| 2026-04-29 11:35 | 23.38543 | 57.07429 | 38861 ft | 511 kts | 97° |
| 2026-04-29 11:35 | 23.38930 | 57.15085 | 38855 ft | 511 kts | 78° |
| 2026-04-29 11:36 | 23.40453 | 57.22679 | 38851 ft | 514 kts | 77° |
| 2026-04-29 11:36 | 23.41945 | 57.30285 | 38835 ft | 517 kts | 78° |
| 2026-04-29 11:37 | 23.43367 | 57.37956 | 38864 ft | 519 kts | 79° |
| 2026-04-29 11:37 | 23.44773 | 57.45684 | 38846 ft | 519 kts | 79° |
| 2026-04-29 11:38 | 23.46178 | 57.53411 | 38826 ft | 519 kts | 79° |
| 2026-04-29 11:38 | 23.47571 | 57.61071 | 38818 ft | 518 kts | 79° |
| 2026-04-29 11:39 | 23.48969 | 57.68772 | 38812 ft | 517 kts | 79° |
| 2026-04-29 11:39 | 23.50345 | 57.76450 | 38805 ft | 516 kts | 79° |
| 2026-04-29 11:40 | 23.51709 | 57.84120 | 38790 ft | 515 kts | 79° |
| 2026-04-29 11:40 | 23.53069 | 57.91783 | 38791 ft | 514 kts | 79° |
| 2026-04-29 11:41 | 23.54419 | 57.99401 | 38776 ft | 515 kts | 79° |
| 2026-04-29 11:41 | 23.55775 | 58.07078 | 38765 ft | 516 kts | 79° |
| 2026-04-29 11:42 | 23.57129 | 58.14763 | 38724 ft | 516 kts | 79° |
| 2026-04-29 11:42 | 23.58476 | 58.22436 | 38721 ft | 517 kts | 79° |
| 2026-04-29 11:43 | 23.59815 | 58.30145 | 38723 ft | 518 kts | 79° |
| 2026-04-29 11:43 | 23.61108 | 58.37857 | 38717 ft | 518 kts | 79° |
| 2026-04-29 11:44 | 23.62397 | 58.45594 | 38724 ft | 517 kts | 79° |
| 2026-04-29 11:44 | 23.63689 | 58.53335 | 38728 ft | 517 kts | 79° |
| 2026-04-29 11:45 | 23.64969 | 58.61008 | 38733 ft | 516 kts | 79° |
| 2026-04-29 11:45 | 23.66253 | 58.68733 | 38736 ft | 516 kts | 79° |
| 2026-04-29 11:46 | 23.67521 | 58.76387 | 38735 ft | 516 kts | 79° |
| 2026-04-29 11:46 | 23.68793 | 58.84090 | 38737 ft | 515 kts | 79° |
| 2026-04-29 11:47 | 23.70065 | 58.91819 | 38737 ft | 515 kts | 79° |
| 2026-04-29 11:47 | 23.71328 | 58.99523 | 38736 ft | 515 kts | 79° |
| 2026-04-29 11:48 | 23.72581 | 59.07191 | 38737 ft | 516 kts | 79° |
| 2026-04-29 11:48 | 23.73838 | 59.14906 | 38737 ft | 516 kts | 79° |
| 2026-04-29 11:49 | 23.75095 | 59.22647 | 38749 ft | 523 kts | 79° |
| 2026-04-29 11:49 | 23.76374 | 59.30547 | 38745 ft | 530 kts | 79° |
| 2026-04-29 11:50 | 23.77659 | 59.38512 | 38739 ft | 533 kts | 79° |
| 2026-04-29 11:50 | 23.78935 | 59.46445 | 38741 ft | 534 kts | 79° |
| 2026-04-29 11:51 | 23.80221 | 59.54442 | 38738 ft | 534 kts | 79° |
| 2026-04-29 11:51 | 23.81521 | 59.62426 | 38734 ft | 533 kts | 79° |
| 2026-04-29 11:52 | 23.82806 | 59.70340 | 38735 ft | 531 kts | 79° |
| 2026-04-29 11:52 | 23.84091 | 59.78296 | 38735 ft | 530 kts | 79° |
| 2026-04-29 11:53 | 23.85356 | 59.86228 | 38732 ft | 529 kts | 79° |
| 2026-04-29 11:53 | 23.86596 | 59.94130 | 38733 ft | 529 kts | 79° |
| 2026-04-29 11:54 | 23.87830 | 60.02017 | 38735 ft | 528 kts | 79° |
| 2026-04-29 11:54 | 23.89069 | 60.09949 | 38732 ft | 529 kts | 79° |
| 2026-04-29 11:55 | 23.90308 | 60.17898 | 38730 ft | 529 kts | 79° |
| 2026-04-29 11:55 | 23.91534 | 60.25797 | 38729 ft | 530 kts | 79° |
| 2026-04-29 11:56 | 23.92765 | 60.33752 | 38732 ft | 530 kts | 79° |
| 2026-04-29 11:56 | 23.93785 | 60.40362 | 38729 ft | 531 kts | 79° |
| 2026-04-29 11:57 | 23.95010 | 60.48337 | 38729 ft | 531 kts | 79° |
| 2026-04-29 11:57 | 23.96235 | 60.56331 | 38726 ft | 532 kts | 79° |
| 2026-04-29 11:58 | 23.97447 | 60.64273 | 38723 ft | 532 kts | 79° |
| 2026-04-29 11:58 | 23.98665 | 60.72282 | 38723 ft | 532 kts | 79° |
| 2026-04-29 11:59 | 23.99876 | 60.80275 | 38718 ft | 533 kts | 79° |
| 2026-04-29 11:59 | 24.01077 | 60.88230 | 38719 ft | 533 kts | 79° |
| 2026-04-29 12:00 | 24.02287 | 60.96271 | 38719 ft | 534 kts | 79° |
| 2026-04-29 12:00 | 24.03490 | 61.04298 | 38719 ft | 534 kts | 79° |
| 2026-04-29 12:01 | 24.04880 | 61.13605 | 38715 ft | 534 kts | 79° |
| 2026-04-29 12:01 | 24.05881 | 61.20336 | 38714 ft | 535 kts | 79° |
| 2026-04-29 12:02 | 24.07069 | 61.28351 | 38712 ft | 535 kts | 79° |
| 2026-04-29 12:02 | 24.08257 | 61.36386 | 38719 ft | 535 kts | 79° |
| 2026-04-29 12:03 | 24.09441 | 61.44386 | 38718 ft | 535 kts | 79° |
| 2026-04-29 12:03 | 24.10628 | 61.52430 | 38714 ft | 535 kts | 79° |
| 2026-04-29 12:04 | 24.11811 | 61.60484 | 38719 ft | 535 kts | 79° |
| 2026-04-29 12:04 | 24.12988 | 61.68532 | 38717 ft | 535 kts | 79° |
| 2026-04-29 12:05 | 24.14162 | 61.76583 | 38715 ft | 535 kts | 79° |
| 2026-04-29 12:05 | 24.15306 | 61.84591 | 38715 ft | 535 kts | 80° |
| 2026-04-29 12:06 | 24.16398 | 61.92668 | 38719 ft | 535 kts | 80° |
| 2026-04-29 12:06 | 24.17472 | 62.00699 | 38715 ft | 535 kts | 80° |
| 2026-04-29 12:07 | 24.18555 | 62.08771 | 38712 ft | 535 kts | 80° |
| 2026-04-29 12:07 | 24.19640 | 62.16848 | 38714 ft | 536 kts | 80° |
| 2026-04-29 12:08 | 24.20723 | 62.24936 | 38712 ft | 536 kts | 80° |
| 2026-04-29 12:08 | 24.21801 | 62.33018 | 38713 ft | 536 kts | 80° |
| 2026-04-29 12:09 | 24.22869 | 62.41066 | 38711 ft | 536 kts | 80° |
| 2026-04-29 12:09 | 24.23938 | 62.49157 | 38711 ft | 536 kts | 80° |
| 2026-04-29 12:10 | 24.25004 | 62.57253 | 38705 ft | 536 kts | 80° |
| 2026-04-29 12:10 | 24.26059 | 62.65304 | 38708 ft | 536 kts | 80° |
| 2026-04-29 12:11 | 24.27113 | 62.73388 | 38710 ft | 536 kts | 80° |
| 2026-04-29 12:11 | 24.28165 | 62.81481 | 38708 ft | 536 kts | 80° |
| 2026-04-29 12:12 | 24.29215 | 62.89594 | 38705 ft | 536 kts | 80° |
| 2026-04-29 12:12 | 24.30254 | 62.97664 | 38707 ft | 537 kts | 80° |
| 2026-04-29 12:13 | 24.31296 | 63.05782 | 38705 ft | 537 kts | 80° |
| 2026-04-29 12:13 | 24.32327 | 63.13857 | 38706 ft | 537 kts | 80° |
| 2026-04-29 12:14 | 24.33360 | 63.21983 | 38712 ft | 537 kts | 80° |
| 2026-04-29 12:14 | 24.34388 | 63.30101 | 38709 ft | 536 kts | 80° |
| 2026-04-29 12:15 | 24.35411 | 63.38215 | 38706 ft | 536 kts | 80° |
| 2026-04-29 12:15 | 24.36422 | 63.46267 | 38705 ft | 535 kts | 80° |
| 2026-04-29 12:16 | 24.37435 | 63.54368 | 38708 ft | 535 kts | 80° |
| 2026-04-29 12:16 | 24.38443 | 63.62472 | 38706 ft | 535 kts | 80° |
| 2026-04-29 12:17 | 24.39440 | 63.70518 | 38706 ft | 536 kts | 80° |
| 2026-04-29 12:17 | 24.40443 | 63.78650 | 38710 ft | 536 kts | 80° |
| 2026-04-29 12:18 | 24.41437 | 63.86745 | 38706 ft | 537 kts | 80° |
| 2026-04-29 12:18 | 24.42428 | 63.94861 | 38707 ft | 537 kts | 80° |
| 2026-04-29 12:19 | 24.43415 | 64.02967 | 38708 ft | 537 kts | 80° |
| 2026-04-29 12:19 | 24.44402 | 64.11122 | 38706 ft | 538 kts | 80° |
| 2026-04-29 12:20 | 24.45377 | 64.19208 | 38707 ft | 538 kts | 80° |
| 2026-04-29 12:20 | 24.46359 | 64.27386 | 38707 ft | 538 kts | 80° |
| 2026-04-29 12:21 | 24.47328 | 64.35500 | 38706 ft | 538 kts | 80° |
| 2026-04-29 12:21 | 24.48299 | 64.43673 | 38702 ft | 538 kts | 80° |
| 2026-04-29 12:22 | 24.49260 | 64.51790 | 38706 ft | 538 kts | 80° |
| 2026-04-29 12:22 | 24.50219 | 64.59933 | 38707 ft | 538 kts | 80° |
| 2026-04-29 12:23 | 24.51176 | 64.68097 | 38704 ft | 538 kts | 80° |
| 2026-04-29 12:23 | 24.52122 | 64.76200 | 38703 ft | 538 kts | 80° |
| 2026-04-29 12:24 | 24.53064 | 64.84363 | 38703 ft | 538 kts | 81° |
| 2026-04-29 12:24 | 24.53768 | 64.92531 | 38704 ft | 539 kts | 83° |
| 2026-04-29 12:25 | 24.54345 | 65.00762 | 38709 ft | 539 kts | 83° |
| 2026-04-29 12:26 | 24.55255 | 65.13092 | 38704 ft | 539 kts | 83° |
| 2026-04-29 12:26 | 24.55886 | 65.21261 | 38703 ft | 539 kts | 82° |
| 2026-04-29 12:27 | 24.56416 | 65.28132 | 38704 ft | 540 kts | 83° |
| 2026-04-29 12:27 | 24.57144 | 65.37685 | 38704 ft | 540 kts | 83° |
| 2026-04-29 12:28 | 24.57757 | 65.45852 | 38341 ft | 527 kts | 82° |
| 2026-04-29 12:28 | 24.58058 | 65.49874 | 37548 ft | 527 kts | 82° |
| 2026-04-29 12:28 | 24.58357 | 65.53870 | 36536 ft | 533 kts | 82° |
| 2026-04-29 12:28 | 24.58665 | 65.57973 | 35465 ft | 540 kts | 82° |
| 2026-04-29 12:29 | 24.58975 | 65.62117 | 34436 ft | 546 kts | 82° |
| 2026-04-29 12:29 | 24.59285 | 65.66295 | 33389 ft | 550 kts | 82° |
| 2026-04-29 12:29 | 24.59594 | 65.70498 | 32321 ft | 552 kts | 82° |
| 2026-04-29 12:29 | 24.59898 | 65.74671 | 31410 ft | 551 kts | 82° |
| 2026-04-29 12:30 | 24.60201 | 65.78858 | 30756 ft | 544 kts | 82° |
| 2026-04-29 12:30 | 24.60493 | 65.82927 | 30236 ft | 535 kts | 81° |
| 2026-04-29 12:30 | 24.60783 | 65.86972 | 29675 ft | 528 kts | 81° |
| 2026-04-29 12:30 | 24.61072 | 65.90980 | 28955 ft | 522 kts | 82° |
| 2026-04-29 12:31 | 24.61359 | 65.94954 | 28220 ft | 517 kts | 81° |
| 2026-04-29 12:31 | 24.61639 | 65.98845 | 27496 ft | 514 kts | 82° |
| 2026-04-29 12:31 | 24.61919 | 66.02743 | 26829 ft | 509 kts | 82° |
| 2026-04-29 12:31 | 24.62194 | 66.06596 | 26221 ft | 503 kts | 82° |
| 2026-04-29 12:32 | 24.62465 | 66.10414 | 25625 ft | 498 kts | 82° |
| 2026-04-29 12:32 | 24.62732 | 66.14199 | 25062 ft | 492 kts | 83° |
| 2026-04-29 12:32 | 24.62998 | 66.17959 | 24863 ft | 495 kts | 83° |
| 2026-04-29 12:32 | 24.63263 | 66.21719 | 24448 ft | 493 kts | 83° |
| 2026-04-29 12:33 | 24.63514 | 66.25483 | 23851 ft | 489 kts | 84° |
| 2026-04-29 12:33 | 24.63751 | 66.29197 | 23334 ft | 483 kts | 83° |
| 2026-04-29 12:33 | 24.64007 | 66.32821 | 22773 ft | 477 kts | 83° |
| 2026-04-29 12:33 | 24.64270 | 66.36448 | 22179 ft | 471 kts | 83° |
| 2026-04-29 12:34 | 24.64527 | 66.40029 | 21568 ft | 467 kts | 83° |
| 2026-04-29 12:34 | 24.64776 | 66.43580 | 20962 ft | 464 kts | 83° |
| 2026-04-29 12:34 | 24.65019 | 66.47104 | 20369 ft | 460 kts | 83° |
| 2026-04-29 12:34 | 24.65255 | 66.50563 | 19809 ft | 457 kts | 83° |
| 2026-04-29 12:35 | 24.65490 | 66.54039 | 19261 ft | 453 kts | 83° |
| 2026-04-29 12:35 | 24.65723 | 66.57481 | 18726 ft | 450 kts | 83° |
| 2026-04-29 12:35 | 24.65955 | 66.60914 | 18195 ft | 446 kts | 83° |
| 2026-04-29 12:35 | 24.66184 | 66.64302 | 17634 ft | 443 kts | 83° |
| 2026-04-29 12:36 | 24.66408 | 66.67627 | 17085 ft | 438 kts | 83° |
| 2026-04-29 12:36 | 24.66631 | 66.70958 | 16574 ft | 433 kts | 83° |
| 2026-04-29 12:36 | 24.66851 | 66.74257 | 16102 ft | 428 kts | 83° |
| 2026-04-29 12:36 | 24.67068 | 66.77508 | 15595 ft | 423 kts | 84° |
| 2026-04-29 12:37 | 24.67280 | 66.80688 | 15083 ft | 420 kts | 84° |
| 2026-04-29 12:37 | 24.67491 | 66.83877 | 14576 ft | 416 kts | 84° |
| 2026-04-29 12:37 | 24.67700 | 66.87039 | 14094 ft | 412 kts | 84° |
| 2026-04-29 12:37 | 24.67906 | 66.90171 | 13622 ft | 408 kts | 84° |
| 2026-04-29 12:38 | 24.68108 | 66.93238 | 13127 ft | 404 kts | 84° |
| 2026-04-29 12:38 | 24.68309 | 66.96310 | 12613 ft | 400 kts | 84° |
| 2026-04-29 12:38 | 24.68508 | 66.99345 | 12090 ft | 397 kts | 84° |
| 2026-04-29 12:38 | 24.68705 | 67.02376 | 11561 ft | 393 kts | 84° |
| 2026-04-29 12:39 | 24.69143 | 67.05292 | 10912 ft | 385 kts | 69° |
| 2026-04-29 12:39 | 24.70372 | 67.07814 | 10256 ft | 375 kts | 54° |
| 2026-04-29 12:39 | 24.71781 | 67.10236 | 9824 ft | 371 kts | 56° |
| 2026-04-29 12:39 | 24.73074 | 67.12581 | 9658 ft | 341 kts | 57° |
| 2026-04-29 12:40 | 24.74240 | 67.14737 | 9290 ft | 316 kts | 57° |
| 2026-04-29 12:40 | 24.75338 | 67.16773 | 8676 ft | 304 kts | 57° |
| 2026-04-29 12:40 | 24.76407 | 67.18753 | 7966 ft | 298 kts | 57° |
| 2026-04-29 12:40 | 24.77441 | 67.20667 | 7505 ft | 292 kts | 57° |
| 2026-04-29 12:41 | 24.78492 | 67.22609 | 7033 ft | 297 kts | 57° |
| 2026-04-29 12:41 | 24.79563 | 67.24591 | 6593 ft | 306 kts | 57° |
| 2026-04-29 12:41 | 24.80665 | 67.26632 | 6164 ft | 313 kts | 57° |
| 2026-04-29 12:41 | 24.81768 | 67.28678 | 5705 ft | 316 kts | 58° |
| 2026-04-29 12:42 | 24.82896 | 67.30773 | 5242 ft | 319 kts | 58° |
| 2026-04-29 12:42 | 24.84034 | 67.32886 | 4760 ft | 322 kts | 58° |
| 2026-04-29 12:42 | 24.85180 | 67.35014 | 4321 ft | 324 kts | 58° |
| 2026-04-29 12:42 | 24.86382 | 67.37075 | 3778 ft | 310 kts | 48° |
| 2026-04-29 12:43 | 24.88034 | 67.38454 | 3279 ft | 290 kts | 21° |
| 2026-04-29 12:43 | 24.89922 | 67.38956 | 2921 ft | 267 kts | 2° |
| 2026-04-29 12:43 | 24.91137 | 67.38995 | 2833 ft | 261 kts | 355° |
| 2026-04-29 12:43 | 24.93401 | 67.38377 | 2695 ft | 246 kts | 325° |
| 2026-04-29 12:44 | 24.94556 | 67.37038 | 2695 ft | 243 kts | 293° |
| 2026-04-29 12:44 | 24.94902 | 67.35247 | 2698 ft | 241 kts | 266° |
| 2026-04-29 12:44 | 24.94747 | 67.33423 | 2689 ft | 238 kts | 261° |
| 2026-04-29 12:44 | 24.94569 | 67.32222 | 2672 ft | 233 kts | 258° |
| 2026-04-29 12:45 | 24.94188 | 67.30505 | 2360 ft | 234 kts | 254° |
| 2026-04-29 12:45 | 24.93741 | 67.28780 | 2078 ft | 233 kts | 253° |
| 2026-04-29 12:45 | 24.93302 | 67.27059 | 1764 ft | 228 kts | 253° |
| 2026-04-29 12:45 | 24.92891 | 67.25437 | 1492 ft | 210 kts | 253° |
| 2026-04-29 12:46 | 24.92517 | 67.23962 | 1216 ft | 191 kts | 255° |
| 2026-04-29 12:46 | 24.92176 | 67.22615 | 991 ft | 182 kts | 255° |
| 2026-04-29 12:46 | 24.91839 | 67.21276 | 808 ft | 175 kts | 253° |
| 2026-04-29 12:46 | 24.91533 | 67.20076 | 588 ft | 152 kts | 256° |
| 2026-04-29 12:47 | 24.91278 | 67.19082 | 421 ft | 119 kts | 257° |
| 2026-04-29 12:47 | 24.91051 | 67.18163 | 300 ft | 130 kts | 254° |
| 2026-04-29 12:47 | 24.90795 | 67.17164 | 140 ft | 138 kts | 255° |
| 2026-04-29 12:47 | 24.90557 | 67.16220 | 110 ft | 112 kts | 254° |
| 2026-04-29 12:48 | 24.90398 | 67.15590 | 109 ft | 58 kts | 254° |
| 2026-04-29 12:48 | 24.90321 | 67.15281 | 108 ft | 37 kts | 255° |
| 2026-04-29 12:48 | 24.90235 | 67.15061 | 109 ft | 17 kts | 197° |
| 2026-04-29 12:48 | 24.90182 | 67.15137 | 107 ft | 14 kts | 105° |
| 2026-04-29 12:49 | 24.90154 | 67.15249 | 107 ft | 16 kts | 105° |
| 2026-04-29 12:49 | 24.90141 | 67.15372 | 108 ft | 17 kts | 80° |
| 2026-04-29 12:49 | 24.90171 | 67.15499 | 108 ft | 18 kts | 75° |
| 2026-04-29 12:49 | 24.90206 | 67.15627 | 107 ft | 18 kts | 74° |
| 2026-04-29 12:50 | 24.90238 | 67.15757 | 107 ft | 18 kts | 75° |
| 2026-04-29 12:50 | 24.90271 | 67.15888 | 107 ft | 18 kts | 75° |
| 2026-04-29 12:50 | 24.90304 | 67.16019 | 107 ft | 18 kts | 74° |
| 2026-04-29 12:50 | 24.90337 | 67.16149 | 107 ft | 18 kts | 74° |
| 2026-04-29 12:51 | 24.90371 | 67.16280 | 107 ft | 18 kts | 76° |
| 2026-04-29 12:51 | 24.90402 | 67.16410 | 107 ft | 18 kts | 74° |
| 2026-04-29 12:51 | 24.90436 | 67.16541 | 107 ft | 18 kts | 74° |
| 2026-04-29 12:51 | 24.90452 | 67.16670 | 106 ft | 18 kts | 116° |
| 2026-04-29 12:52 | 24.90388 | 67.16775 | 108 ft | 18 kts | 83° |
| 2026-04-29 12:52 | 24.90416 | 67.16911 | 108 ft | 18 kts | 76° |
| 2026-04-29 12:52 | 24.90415 | 67.17010 | 108 ft | 8 kts | 159° |
| 2026-04-29 12:52 | 24.90374 | 67.16994 | 108 ft | 6 kts | 204° |
| 2026-04-29 12:53 | 24.90339 | 67.16976 | 107 ft | 2 kts | 205° |
| 2026-04-29 12:53 | 24.90333 | 67.16973 | 107 ft | 0 kts | 205° |